Trans Sea — 9HA2564 — position and weather

sailwx.info

Track history (hours):
 
Tides and Currents Weather Stations Pressure Air Temp Water Temp Dewpoint Dewpoint Depression Visibility Wind Speed Wind Dir Waves Ship Positions

Trans Sea

Last reported at 2017-Sep-21 05:05 UTC. Time now 2017-Sep-24 09:01 UTC.
Position N 40°28' E 003°21'.

Length 107 m; draft 5 m.

Type: Ship. MMSI: 248887000.

Date/timePositionNaut miles runAvg speedWind from/ knotsBaromVisibWave heightAir tempDewpointWater temp
2017-Sep-21 05:05N 40°28' E 003°21'313.7
2017-Sep-21 04:50N 40°30' E 003°16'613.7
2017-Sep-21 04:25N 40°32' E 003°09'613.6
2017-Sep-21 04:00N 40°34' E 003°02'713.6
2017-Sep-21 03:30N 40°36' E 002°54'713.5
2017-Sep-21 03:00N 40°38' E 002°45'713.6
2017-Sep-21 02:30N 40°41' E 002°37'713.7
2017-Sep-21 02:00N 40°43' E 002°28'713.6
2017-Sep-21 01:30N 40°45' E 002°20'713.5
2017-Sep-21 00:59N 40°47' E 002°11'713.3
2017-Sep-21 00:30N 40°50' E 002°03'713.3
2017-Sep-21 00:00N 40°52' E 001°55'1113.2
2017-Sep-20 23:08N 40°56' E 001°41'213.1
2017-Sep-20 23:00N 40°56' E 001°39'  
2017-Sep-16 20:02N 37°45' W 000°21'012.8
2017-Sep-16 20:00N 37°44' W 000°21'612.6
2017-Sep-16 19:30N 37°39' W 000°26'612.5
2017-Sep-16 19:00N 37°34' W 000°30'612.2
2017-Sep-16 18:30N 37°30' W 000°36'612.0
2017-Sep-16 18:00N 37°26' W 000°41'612.3
2017-Sep-16 17:30N 37°22' W 000°47'612.5
2017-Sep-16 17:00N 37°17' W 000°53'612.6
2017-Sep-16 16:30N 37°13' W 000°59'21613.4
2017-Sep-16 00:22N 36°00' W 005°12'616.5
2017-Sep-16 00:01N 35°59' W 005°19'815.6
2017-Sep-15 23:31N 35°57' W 005°28'2414.1
2017-Sep-15 21:47N 35°53' W 005°58'12813.2
2017-Sep-15 12:04N 36°19' W 008°33'113.2
2017-Sep-15 11:59N 36°20' W 008°35'1113.2
2017-Sep-15 11:09N 36°23' W 008°48'213.5
2017-Sep-15 11:00N 36°23' W 008°50'713.2
2017-Sep-15 10:30N 36°25' W 008°58'713.2
2017-Sep-15 10:00N 36°27' W 009°06'813.2
2017-Sep-15 09:23N 36°29' W 009°16'1712.9
2017-Sep-15 08:05N 36°40' W 009°32'313.3
2017-Sep-15 07:54N 36°42' W 009°34'6213.3
2017-Sep-15 03:12N 37°42' W 009°54'312.9
2017-Sep-15 03:00N 37°44' W 009°55'812.8
2017-Sep-15 02:21N 37°53' W 009°58'513.0
2017-Sep-15 01:56N 37°58' W 009°59'613.3
2017-Sep-15 01:30N 38°03' W 010°01'813.2
2017-Sep-15 00:56N 38°11' W 010°03'613.7
2017-Sep-15 00:30N 38°16' W 010°05'713.8
2017-Sep-14 23:58N 38°24' W 010°08'613.7
2017-Sep-14 23:30N 38°30' W 010°09'713.7
2017-Sep-14 23:00N 38°36' W 010°11'713.3
2017-Sep-14 22:30N 38°43' W 010°12'713.6
2017-Sep-14 22:00N 38°50' W 010°12'714.1
2017-Sep-14 21:30N 38°57' W 010°12'713.8
2017-Sep-14 21:00N 39°04' W 010°12'714.1
2017-Sep-14 20:30N 39°11' W 010°12'713.8
2017-Sep-14 20:01N 39°18' W 010°12'713.7
2017-Sep-14 19:30N 39°25' W 010°12'713.5
2017-Sep-14 19:00N 39°31' W 010°12'713.6
2017-Sep-14 18:30N 39°38' W 010°12'2113.8
2017-Sep-14 16:59N 39°59' W 010°12'  
2017-Sep-12 06:20N 49°37' W 003°56'411.2
2017-Sep-12 06:00N 49°39' W 003°51'611.0
2017-Sep-12 05:27N 49°42' W 003°43'511.5
2017-Sep-12 05:00N 49°45' W 003°36'611.6
2017-Sep-12 04:28N 49°48' W 003°28'511.8
2017-Sep-12 04:01N 49°50' W 003°20'1311.5
2017-Sep-12 02:53N 49°56' W 003°03'411.0
2017-Sep-12 02:31N 49°58' W 002°57'510.5
2017-Sep-12 02:01N 50°01' W 002°50'610.0
2017-Sep-12 01:26N 50°02' W 002°41'26 7.4
2017-Sep-11 21:56N 50°09' W 002°02'3 6.7
2017-Sep-11 21:30N 50°10' W 001°58'4 7.1
2017-Sep-11 21:00N 50°11' W 001°52'4 8.1
2017-Sep-11 20:30N 50°12' W 001°46'4 8.2
2017-Sep-11 20:00N 50°13' W 001°40'5 9.9
2017-Sep-11 19:30N 50°14' W 001°33'611.1
2017-Sep-11 19:00N 50°16' W 001°24'4012.1
2017-Sep-11 15:43N 50°27' W 000°24'210.3
2017-Sep-11 15:30N 50°27' W 000°21'5 9.4
2017-Sep-11 15:00N 50°29' W 000°14'2 4.3
2017-Sep-11 14:30N 50°29' W 000°11'1 1.9
2017-Sep-11 14:00N 50°29' W 000°12'3 5.7
2017-Sep-11 13:30N 50°30' W 000°08'3 5.5
2017-Sep-11 13:00N 50°31' W 000°03'2 4.6
2017-Sep-11 12:30N 50°31' E 000°00'2 3.7
2017-Sep-11 12:00N 50°32' E 000°03'2 3.4
2017-Sep-11 11:30N 50°32' E 000°05'2 3.6
2017-Sep-11 11:00N 50°32' E 000°08'2 3.5
2017-Sep-11 10:30N 50°33' E 000°11'2 3.6
2017-Sep-11 10:00N 50°34' E 000°14'3 4.7
2017-Sep-11 09:24N 50°34' E 000°18'2 5.8
2017-Sep-11 09:00N 50°35' E 000°21'3 6.7
2017-Sep-11 08:29N 50°36' E 000°27'4 7.4
2017-Sep-11 08:00N 50°37' E 000°32'4 7.4
2017-Sep-11 07:30N 50°38' E 000°37'4 8.2
2017-Sep-11 07:00N 50°41' E 000°43'4 8.5
2017-Sep-11 06:30N 50°43' E 000°48'4 8.6
2017-Sep-11 06:00N 50°46' E 000°54'7 8.9
2017-Sep-11 05:13N 50°50' E 001°02'  
Track history (hours):
 
Tides and Currents Weather Stations Pressure Air Temp Water Temp Dewpoint Dewpoint Depression Visibility Wind Speed Wind Dir Waves Ship Positions

Trans Sea

Last reported at 2017-Sep-21 05:05 UTC. Time now 2017-Sep-24 09:01 UTC.
Position N 40°28' E 003°21'.

Length 107 m; draft 5 m.

Type: Ship. MMSI: 248887000.

Date/timePositionNaut miles runAvg speedWind from/ knotsBaromVisibWave heightAir tempDewpointWater temp
2017-Sep-21 05:05N 40°28' E 003°21'313.7
2017-Sep-21 04:50N 40°30' E 003°16'613.7
2017-Sep-21 04:25N 40°32' E 003°09'613.6
2017-Sep-21 04:00N 40°34' E 003°02'713.6
2017-Sep-21 03:30N 40°36' E 002°54'713.5
2017-Sep-21 03:00N 40°38' E 002°45'713.6
2017-Sep-21 02:30N 40°41' E 002°37'713.7
2017-Sep-21 02:00N 40°43' E 002°28'713.6
2017-Sep-21 01:30N 40°45' E 002°20'713.5
2017-Sep-21 00:59N 40°47' E 002°11'713.3
2017-Sep-21 00:30N 40°50' E 002°03'713.3
2017-Sep-21 00:00N 40°52' E 001°55'1113.2
2017-Sep-20 23:08N 40°56' E 001°41'213.1
2017-Sep-20 23:00N 40°56' E 001°39'  
2017-Sep-16 20:02N 37°45' W 000°21'012.8
2017-Sep-16 20:00N 37°44' W 000°21'612.6
2017-Sep-16 19:30N 37°39' W 000°26'612.5
2017-Sep-16 19:00N 37°34' W 000°30'612.2
2017-Sep-16 18:30N 37°30' W 000°36'612.0
2017-Sep-16 18:00N 37°26' W 000°41'612.3
2017-Sep-16 17:30N 37°22' W 000°47'612.5
2017-Sep-16 17:00N 37°17' W 000°53'612.6
2017-Sep-16 16:30N 37°13' W 000°59'21613.4
2017-Sep-16 00:22N 36°00' W 005°12'616.5
2017-Sep-16 00:01N 35°59' W 005°19'815.6
2017-Sep-15 23:31N 35°57' W 005°28'2414.1
2017-Sep-15 21:47N 35°53' W 005°58'12813.2
2017-Sep-15 12:04N 36°19' W 008°33'113.2
2017-Sep-15 11:59N 36°20' W 008°35'1113.2
2017-Sep-15 11:09N 36°23' W 008°48'213.5
2017-Sep-15 11:00N 36°23' W 008°50'713.2
2017-Sep-15 10:30N 36°25' W 008°58'713.2
2017-Sep-15 10:00N 36°27' W 009°06'813.2
2017-Sep-15 09:23N 36°29' W 009°16'1712.9
2017-Sep-15 08:05N 36°40' W 009°32'313.3
2017-Sep-15 07:54N 36°42' W 009°34'6213.3
2017-Sep-15 03:12N 37°42' W 009°54'312.9
2017-Sep-15 03:00N 37°44' W 009°55'812.8
2017-Sep-15 02:21N 37°53' W 009°58'513.0
2017-Sep-15 01:56N 37°58' W 009°59'613.3
2017-Sep-15 01:30N 38°03' W 010°01'813.2
2017-Sep-15 00:56N 38°11' W 010°03'613.7
2017-Sep-15 00:30N 38°16' W 010°05'713.8
2017-Sep-14 23:58N 38°24' W 010°08'613.7
2017-Sep-14 23:30N 38°30' W 010°09'713.7
2017-Sep-14 23:00N 38°36' W 010°11'713.3
2017-Sep-14 22:30N 38°43' W 010°12'713.6
2017-Sep-14 22:00N 38°50' W 010°12'714.1
2017-Sep-14 21:30N 38°57' W 010°12'713.8
2017-Sep-14 21:00N 39°04' W 010°12'714.1
2017-Sep-14 20:30N 39°11' W 010°12'713.8
2017-Sep-14 20:01N 39°18' W 010°12'713.7
2017-Sep-14 19:30N 39°25' W 010°12'713.5
2017-Sep-14 19:00N 39°31' W 010°12'713.6
2017-Sep-14 18:30N 39°38' W 010°12'2113.8
2017-Sep-14 16:59N 39°59' W 010°12'  
2017-Sep-12 06:20N 49°37' W 003°56'411.2
2017-Sep-12 06:00N 49°39' W 003°51'611.0
2017-Sep-12 05:27N 49°42' W 003°43'511.5
2017-Sep-12 05:00N 49°45' W 003°36'611.6
2017-Sep-12 04:28N 49°48' W 003°28'511.8
2017-Sep-12 04:01N 49°50' W 003°20'1311.5
2017-Sep-12 02:53N 49°56' W 003°03'411.0
2017-Sep-12 02:31N 49°58' W 002°57'510.5
2017-Sep-12 02:01N 50°01' W 002°50'610.0
2017-Sep-12 01:26N 50°02' W 002°41'26 7.4
2017-Sep-11 21:56N 50°09' W 002°02'3 6.7
2017-Sep-11 21:30N 50°10' W 001°58'4 7.1
2017-Sep-11 21:00N 50°11' W 001°52'4 8.1
2017-Sep-11 20:30N 50°12' W 001°46'4 8.2
2017-Sep-11 20:00N 50°13' W 001°40'5 9.9
2017-Sep-11 19:30N 50°14' W 001°33'611.1
2017-Sep-11 19:00N 50°16' W 001°24'4012.1
2017-Sep-11 15:43N 50°27' W 000°24'210.3
2017-Sep-11 15:30N 50°27' W 000°21'5 9.4
2017-Sep-11 15:00N 50°29' W 000°14'2 4.3
2017-Sep-11 14:30N 50°29' W 000°11'1 1.9
2017-Sep-11 14:00N 50°29' W 000°12'3 5.7
2017-Sep-11 13:30N 50°30' W 000°08'3 5.5
2017-Sep-11 13:00N 50°31' W 000°03'2 4.6
2017-Sep-11 12:30N 50°31' E 000°00'2 3.7
2017-Sep-11 12:00N 50°32' E 000°03'2 3.4
2017-Sep-11 11:30N 50°32' E 000°05'2 3.6
2017-Sep-11 11:00N 50°32' E 000°08'2 3.5
2017-Sep-11 10:30N 50°33' E 000°11'2 3.6
2017-Sep-11 10:00N 50°34' E 000°14'3 4.7
2017-Sep-11 09:24N 50°34' E 000°18'2 5.8
2017-Sep-11 09:00N 50°35' E 000°21'3 6.7
2017-Sep-11 08:29N 50°36' E 000°27'4 7.4
2017-Sep-11 08:00N 50°37' E 000°32'4 7.4
2017-Sep-11 07:30N 50°38' E 000°37'4 8.2
2017-Sep-11 07:00N 50°41' E 000°43'4 8.5
2017-Sep-11 06:30N 50°43' E 000°48'4 8.6
2017-Sep-11 06:00N 50°46' E 000°54'7 8.9
2017-Sep-11 05:13N 50°50' E 001°02'  

Dump ship's entire track history